SBPV/PVH METAR and TAF weather

Enter ICAO airport designator
Station Type Date Time Source
SBPV METAR 2024/02/26 18:00 UTC NOAA

SBPV 261800Z 06004KT 9999 BKN023 FEW030TCU 30/23 Q1012


Station Type Date Time Source
SBPV Decoded METAR 2024/02/26 18:00 UTC NOAA

Porto Velho Aeroporto , Brazil (SBPV) 08-46S 063-55W 102M
Feb 26, 2024 - 01:00 PM EST / 2024.02.26 1800 UTC
Wind: from the ENE (060 degrees) at 5 MPH (4 KT):0
Visibility: greater than 7 mile(s):0
Sky conditions: mostly cloudy
Weather: Towering cumulus clouds observed
Temperature: 86 F (30 C)
Heat index: 93.4 F (34.1 C):1
Dew Point: 73 F (23 C)
Relative Humidity: 66%
Pressure (altimeter): 29.88 in. Hg (1012 hPa)
ob: SBPV 261800Z 06004KT 9999 BKN023 FEW030TCU 30/23 Q1012
cycle: 18

Station Type Date Time Source
SBPV TAF 2024/02/26 18:03 UTC NOAA